Kurchatov, Russia
Current Conditions -  °F | °C
As of 7:00 AM on Friday 31 Oct 2014 (Local Time) from UUOK Reporting Station
Haze Haze  
Wind Chill: 32°   Ceiling: 10000
Heat Index: 32°   Visibility: 2.5mi
Dew Point: 25°   Wind: 0mph
Humidity: 75%   Direction: NA
Pressure: 30.15"   Gusts: NA
Location:  51.59°N, 35.65°E
Report Text: UUOK 310400Z 00000MPS 4000 BR BKN100 00/M04 Q1021 NOSIG RMK30CLRD70
Loading
Personal Weather Stations






























Interactive Weather Map
Tropical Storm Tracking
New forecast layout! Learn more

10-Day Weather Forecast

Advertisements
Track Severe Weather on mobile